Time;durP1;ratioP1;P1;durP2;ratioP2;P2;SDS_P1;SDS_P2;PMS_P1;PMS_P2;Temp;Humidity;BMP_temperature;BMP_pressure;BME280_temperature;BME280_humidity;BME280_pressure;Samples;Min_cycle;Max_cycle;Signal;HPM_P1;HPM_P2
2023/06/17 00:02:11;;;;;;;11.00;8.32;;;17.90;95.80;;;;;;5011695;28;20086;-52
2023/06/17 00:04:37;;;;;;;13.23;9.10;;;17.80;96.00;;;;;;5011214;28;20041;-49
2023/06/17 00:07:03;;;;;;;9.68;8.68;;;17.80;96.30;;;;;;4990401;28;20038;-53
2023/06/17 00:09:28;;;;;;;10.60;8.15;;;17.70;96.50;;;;;;5007412;28;20096;-54
2023/06/17 00:11:56;;;;;;;9.38;8.25;;;17.80;96.80;;;;;;5003895;28;20045;-53
2023/06/17 00:14:23;;;;;;;11.40;9.10;;;17.70;97.00;;;;;;5009148;28;20053;-52
2023/06/17 00:16:50;;;;;;;9.80;8.23;;;17.70;97.30;;;;;;4996351;28;20049;-54
2023/06/17 00:19:16;;;;;;;12.00;9.05;;;17.70;97.50;;;;;;5010566;28;20050;-51
2023/06/17 00:21:52;;;;;;;12.85;8.75;;;17.70;97.70;;;;;;5010803;28;20034;-51
2023/06/17 00:24:19;;;;;;;12.20;8.90;;;17.70;97.90;;;;;;5010241;28;20046;-53
2023/06/17 00:26:45;;;;;;;11.48;9.38;;;17.70;97.90;;;;;;5011270;28;20481;-55
2023/06/17 00:29:11;;;;;;;11.45;8.90;;;17.60;98.00;;;;;;5004541;28;20049;-54
2023/06/17 00:31:37;;;;;;;11.77;8.63;;;17.50;98.20;;;;;;5010317;28;20541;-53
2023/06/17 00:34:03;;;;;;;10.88;8.82;;;17.50;98.30;;;;;;4983978;28;20591;-51
2023/06/17 00:36:29;;;;;;;10.82;9.40;;;17.40;98.80;;;;;;4993850;28;20050;-51
2023/06/17 00:38:55;;;;;;;11.13;9.77;;;17.40;98.80;;;;;;4994415;28;20040;-53
2023/06/17 00:41:20;;;;;;;11.73;9.73;;;17.40;99.10;;;;;;4993927;28;20094;-52
2023/06/17 00:43:46;;;;;;;10.98;8.85;;;17.40;99.20;;;;;;5004900;28;20074;-51
2023/06/17 00:46:39;;;;;;;12.68;9.25;;;17.30;99.30;;;;;;5010048;28;20437;-50
2023/06/17 00:49:07;;;;;;;11.88;9.88;;;17.30;99.50;;;;;;5002317;28;20046;-50
2023/06/17 00:51:33;;;;;;;11.35;9.20;;;17.30;99.80;;;;;;5010856;28;20049;-53
2023/06/17 00:54:00;;;;;;;14.20;10.02;;;17.20;99.90;;;;;;4994964;28;20485;-52
2023/06/17 00:56:28;;;;;;;12.68;9.40;;;17.10;99.90;;;;;;5010290;28;20038;-51
2023/06/17 00:58:55;;;;;;;10.88;9.20;;;17.10;99.90;;;;;;4993316;28;20061;-53
2023/06/17 01:01:24;;;;;;;10.52;9.18;;;17.10;99.90;;;;;;5010749;28;20034;-51
2023/06/17 01:03:51;;;;;;;12.10;10.05;;;17.10;99.90;;;;;;5010940;28;20049;-51
2023/06/17 01:06:33;;;;;;;11.43;9.98;;;17.10;99.90;;;;;;5009772;28;20049;-52
2023/06/17 01:09:06;;;;;;;13.25;10.40;;;17.10;99.90;;;;;;5010069;28;20107;-52
2023/06/17 01:11:33;;;;;;;14.98;10.57;;;17.00;99.90;;;;;;4995913;28;20170;-51
2023/06/17 01:14:00;;;;;;;14.13;10.35;;;17.00;99.90;;;;;;5009340;28;20038;-55
2023/06/17 01:16:27;;;;;;;13.00;10.45;;;16.90;99.90;;;;;;4991068;28;20038;-50
2023/06/17 01:18:53;;;;;;;15.70;11.07;;;16.90;99.90;;;;;;4992061;28;20046;-53
2023/06/17 01:21:22;;;;;;;11.35;10.15;;;16.80;99.90;;;;;;5009609;28;20041;-54
2023/06/17 01:23:53;;;;;;;12.88;10.88;;;16.80;99.90;;;;;;5009820;28;20041;-49
2023/06/17 01:26:19;;;;;;;13.05;10.25;;;16.80;99.90;;;;;;5012897;28;20034;-52
2023/06/17 01:28:45;;;;;;;13.05;10.65;;;16.70;99.90;;;;;;4994413;28;20508;-51
2023/06/17 01:31:12;;;;;;;11.48;10.23;;;16.70;99.90;;;;;;4997371;28;20038;-50
2023/06/17 01:33:41;;;;;;;13.57;11.07;;;16.70;99.90;;;;;;5013951;28;20049;-54
2023/06/17 01:36:18;;;;;;;11.98;10.35;;;16.70;99.90;;;;;;5014704;28;20393;-54
2023/06/17 01:38:49;;;;;;;12.57;10.60;;;16.70;99.90;;;;;;5013486;28;20101;-52
2023/06/17 01:41:23;;;;;;;11.95;10.20;;;16.70;99.90;;;;;;5012829;28;20062;-52
2023/06/17 01:43:50;;;;;;;11.68;10.48;;;16.70;99.90;;;;;;4990862;28;20038;-51
2023/06/17 01:46:16;;;;;;;16.15;10.68;;;16.60;99.90;;;;;;5012196;28;20037;-53
2023/06/17 01:48:42;;;;;;;10.80;9.70;;;16.60;99.90;;;;;;5014209;28;20073;-51
2023/06/17 01:51:08;;;;;;;13.20;11.15;;;16.60;99.90;;;;;;5013383;28;20494;-50
2023/06/17 01:53:34;;;;;;;13.00;10.82;;;16.50;99.90;;;;;;5013244;28;20180;-52
2023/06/17 01:56:00;;;;;;;11.98;10.40;;;16.50;99.90;;;;;;5012890;28;20041;-53
2023/06/17 01:58:25;;;;;;;13.73;11.77;;;16.50;99.90;;;;;;4993908;28;20049;-52
2023/06/17 02:00:51;;;;;;;14.07;11.20;;;16.50;99.90;;;;;;5014235;28;20099;-52
2023/06/17 02:03:17;;;;;;;12.25;11.00;;;16.40;99.90;;;;;;5013891;28;20069;-52
2023/06/17 02:05:43;;;;;;;13.85;11.32;;;16.40;99.90;;;;;;4999997;28;20466;-54
2023/06/17 02:08:09;;;;;;;12.85;11.30;;;16.40;99.90;;;;;;5013076;28;20038;-53
2023/06/17 02:10:35;;;;;;;15.35;11.43;;;16.40;99.90;;;;;;5011804;28;20042;-53
2023/06/17 02:13:03;;;;;;;17.17;13.27;;;16.40;99.90;;;;;;5011263;28;20044;-51
2023/06/17 02:15:32;;;;;;;16.08;12.13;;;16.50;99.90;;;;;;5013902;28;20479;-52
2023/06/17 02:17:58;;;;;;;17.02;14.38;;;16.60;99.90;;;;;;5012582;28;20041;-52
2023/06/17 02:20:24;;;;;;;11.48;10.32;;;16.60;99.90;;;;;;5013698;28;20042;-49
2023/06/17 02:22:50;;;;;;;11.48;8.75;;;16.60;99.90;;;;;;4996200;28;20507;-50
2023/06/17 02:25:15;;;;;;;8.57;7.68;;;16.50;99.90;;;;;;5013679;28;20113;-54
2023/06/17 02:27:41;;;;;;;148.32;8.82;;;16.50;99.90;;;;;;5013643;28;20439;-54
2023/06/17 02:30:09;;;;;;;30.35;6.47;;;16.40;99.90;;;;;;5013462;28;20034;-51
2023/06/17 02:32:35;;;;;;;11.35;6.47;;;16.10;99.90;;;;;;5013024;28;20038;-53
2023/06/17 02:35:02;;;;;;;7.15;6.45;;;16.00;99.90;;;;;;5013501;28;20084;-53
2023/06/17 02:37:28;;;;;;;7.78;6.63;;;15.80;99.90;;;;;;5012468;28;20634;-50
2023/06/17 02:39:54;;;;;;;7.75;6.95;;;15.60;99.90;;;;;;5003157;28;20133;-53
2023/06/17 02:42:20;;;;;;;7.53;6.75;;;15.60;99.90;;;;;;4975690;28;20121;-53
2023/06/17 02:44:46;;;;;;;7.40;6.30;;;15.50;99.90;;;;;;5012086;28;20048;-51
2023/06/17 02:47:12;;;;;;;8.13;7.35;;;15.40;99.90;;;;;;5013206;28;20432;-54
2023/06/17 02:49:38;;;;;;;8.27;7.00;;;15.40;99.90;;;;;;5013248;28;20069;-51
2023/06/17 02:52:04;;;;;;;7.85;6.22;;;15.40;99.90;;;;;;5013015;28;20100;-50
2023/06/17 02:54:30;;;;;;;8.68;7.78;;;15.40;99.90;;;;;;5013104;28;20056;-52
2023/06/17 02:56:56;;;;;;;9.65;8.10;;;15.40;99.90;;;;;;5013022;28;20042;-49
2023/06/17 02:59:22;;;;;;;10.57;7.75;;;15.40;99.90;;;;;;4995539;28;20087;-52
2023/06/17 03:01:48;;;;;;;9.13;8.20;;;15.40;99.90;;;;;;5013002;28;20184;-55
2023/06/17 03:04:14;;;;;;;9.25;8.25;;;15.40;99.90;;;;;;5013360;28;20117;-50
2023/06/17 03:06:41;;;;;;;8.77;7.93;;;15.40;99.90;;;;;;5012847;28;20065;-53
2023/06/17 03:09:10;;;;;;;9.93;8.93;;;15.40;99.90;;;;;;5012777;28;20041;-47
2023/06/17 03:11:39;;;;;;;9.68;8.73;;;15.40;99.90;;;;;;5012326;28;20080;-52
2023/06/17 03:14:05;;;;;;;10.45;9.45;;;15.40;99.90;;;;;;5011638;28;20045;-51
2023/06/17 03:16:33;;;;;;;31.88;10.93;;;15.40;99.90;;;;;;5012057;28;20042;-53
2023/06/17 03:18:59;;;;;;;52.22;11.15;;;15.40;99.90;;;;;;5012639;28;20042;-54
2023/06/17 03:21:25;;;;;;;12.40;11.13;;;15.40;99.90;;;;;;5012710;28;20042;-52
2023/06/17 03:23:51;;;;;;;10.68;9.57;;;15.40;99.90;;;;;;5012484;28;20034;-53
2023/06/17 03:26:17;;;;;;;11.32;9.73;;;15.40;99.90;;;;;;5012691;28;20051;-51
2023/06/17 03:28:44;;;;;;;10.23;9.13;;;15.40;99.90;;;;;;4978394;28;20116;-52
2023/06/17 03:31:10;;;;;;;11.98;10.75;;;15.40;99.90;;;;;;5012289;28;20033;-54
2023/06/17 03:33:36;;;;;;;11.40;10.30;;;15.40;99.90;;;;;;5012028;28;20042;-55
2023/06/17 03:36:02;;;;;;;11.93;10.25;;;15.40;99.90;;;;;;5012267;28;20065;-55
2023/06/17 03:38:28;;;;;;;11.40;10.30;;;15.40;99.90;;;;;;5002626;28;20096;-51
2023/06/17 03:40:53;;;;;;;12.00;10.80;;;15.40;99.90;;;;;;4975041;28;20502;-52
2023/06/17 03:43:19;;;;;;;82.22;9.15;;;15.40;99.90;;;;;;4992522;28;20043;-52
2023/06/17 03:45:45;;;;;;;56.67;7.53;;;15.40;99.90;;;;;;4991860;28;20464;-54
2023/06/17 03:48:11;;;;;;;94.68;8.80;;;15.40;99.90;;;;;;4974866;28;20046;-52
2023/06/17 03:50:36;;;;;;;7.78;7.03;;;15.30;99.90;;;;;;5011563;28;20080;-51
2023/06/17 03:53:02;;;;;;;58.42;9.77;;;15.30;99.90;;;;;;5012151;28;20092;-53
2023/06/17 03:55:29;;;;;;;16.98;9.63;;;15.20;99.90;;;;;;5012099;28;20045;-54
2023/06/17 03:57:54;;;;;;;18.85;10.35;;;15.10;99.90;;;;;;5011780;28;20489;-53
2023/06/17 04:00:20;;;;;;;59.47;12.43;;;15.10;99.90;;;;;;5008251;28;20432;-50
2023/06/17 04:02:47;;;;;;;19.55;13.52;;;15.10;99.90;;;;;;4992337;28;20405;-54
2023/06/17 04:05:13;;;;;;;26.65;13.65;;;15.10;99.90;;;;;;5003176;28;20026;-52
2023/06/17 04:07:42;;;;;;;14.73;13.23;;;15.10;99.90;;;;;;4992329;28;20053;-53
2023/06/17 04:10:08;;;;;;;13.35;12.05;;;15.10;99.90;;;;;;4989740;28;20038;-53
2023/06/17 04:12:38;;;;;;;14.27;12.75;;;15.20;99.90;;;;;;4992173;28;20048;-51
2023/06/17 04:15:08;;;;;;;13.20;11.80;;;15.20;99.90;;;;;;5003182;28;20059;-55
2023/06/17 04:17:36;;;;;;;13.75;12.35;;;15.20;99.90;;;;;;4993020;28;20037;-53
2023/06/17 04:20:09;;;;;;;13.77;12.38;;;15.20;99.90;;;;;;5011379;28;20040;-56
2023/06/17 04:22:35;;;;;;;14.15;12.75;;;15.20;99.90;;;;;;5011506;28;20486;-53
2023/06/17 04:25:00;;;;;;;14.80;13.30;;;15.20;99.90;;;;;;4992226;28;20037;-51
2023/06/17 04:27:26;;;;;;;15.45;13.95;;;15.30;99.90;;;;;;5010188;28;20041;-51
2023/06/17 04:29:56;;;;;;;16.77;15.13;;;15.40;99.90;;;;;;4993473;28;20048;-59
2023/06/17 04:32:24;;;;;;;14.50;13.10;;;15.40;99.90;;;;;;4993858;28;20091;-51
2023/06/17 04:34:50;;;;;;;16.45;14.75;;;15.50;99.90;;;;;;4994448;28;20064;-51
2023/06/17 04:37:16;;;;;;;14.98;13.38;;;15.60;99.90;;;;;;5001285;28;20405;-55
2023/06/17 04:39:42;;;;;;;14.13;12.82;;;15.70;99.90;;;;;;4975272;28;20039;-51
2023/06/17 04:42:14;;;;;;;12.98;11.77;;;15.70;99.90;;;;;;5010530;28;20089;-49
2023/06/17 04:44:40;;;;;;;11.38;10.27;;;15.80;99.90;;;;;;5002928;28;20053;-49
2023/06/17 04:47:08;;;;;;;13.35;11.95;;;15.80;99.90;;;;;;4974449;28;20100;-53
2023/06/17 04:49:41;;;;;;;13.27;12.00;;;15.80;99.90;;;;;;5009912;28;20045;-54
2023/06/17 04:52:19;;;;;;;13.80;11.82;;;15.90;99.90;;;;;;5009581;28;20049;-54
2023/06/17 04:54:45;;;;;;;14.70;12.60;;;15.90;99.90;;;;;;5007436;28;20066;-51
2023/06/17 04:57:11;;;;;;;14.40;12.93;;;16.00;99.90;;;;;;5000858;28;20125;-53
2023/06/17 04:59:37;;;;;;;15.55;13.43;;;16.10;99.90;;;;;;4990743;28;20034;-52
2023/06/17 05:02:03;;;;;;;15.98;13.07;;;16.10;99.90;;;;;;4992671;28;20041;-50
2023/06/17 05:04:29;;;;;;;16.13;14.52;;;16.20;99.90;;;;;;4990218;28;20037;-50
2023/06/17 05:06:55;;;;;;;16.10;14.50;;;16.30;99.90;;;;;;5010650;28;20046;-51
2023/06/17 05:09:22;;;;;;;13.52;12.20;;;16.20;99.90;;;;;;5010692;28;20144;-53
2023/06/17 05:11:49;;;;;;;13.90;10.77;;;16.30;99.90;;;;;;4993550;28;20164;-54
2023/06/17 05:14:14;;;;;;;13.32;11.30;;;16.30;99.90;;;;;;5010441;28;20145;-56
2023/06/17 05:16:40;;;;;;;12.95;11.27;;;16.60;99.90;;;;;;4976914;28;20117;-53
2023/06/17 05:19:06;;;;;;;13.02;10.80;;;16.30;99.90;;;;;;5010627;28;20042;-49
2023/06/17 05:21:31;;;;;;;13.30;11.38;;;16.30;99.90;;;;;;5010734;28;20033;-53
2023/06/17 05:23:57;;;;;;;14.15;12.65;;;16.30;99.90;;;;;;5010818;28;20177;-54
2023/06/17 05:26:23;;;;;;;15.05;12.88;;;16.40;99.90;;;;;;5011035;28;20038;-52
2023/06/17 05:28:48;;;;;;;18.13;15.05;;;16.40;99.90;;;;;;5010488;28;20038;-52
2023/06/17 05:31:14;;;;;;;15.60;13.65;;;16.50;99.90;;;;;;5010710;28;20036;-53
2023/06/17 05:33:40;;;;;;;19.85;15.50;;;16.60;99.90;;;;;;5010821;28;20041;-54
2023/06/17 05:36:06;;;;;;;19.35;15.90;;;16.60;99.90;;;;;;5010805;28;20030;-53
2023/06/17 05:38:32;;;;;;;18.45;16.25;;;16.60;99.90;;;;;;4996981;28;20047;-49
2023/06/17 05:40:58;;;;;;;20.65;17.08;;;16.70;99.90;;;;;;5005367;28;20493;-54
2023/06/17 05:43:27;;;;;;;22.95;18.08;;;16.70;99.90;;;;;;5000828;28;20043;-51
2023/06/17 05:45:53;;;;;;;18.30;16.40;;;16.80;99.90;;;;;;4981488;28;20141;-55
2023/06/17 05:48:19;;;;;;;21.88;19.45;;;16.90;99.90;;;;;;4978326;28;20047;-54
2023/06/17 05:50:45;;;;;;;23.23;19.60;;;17.00;99.90;;;;;;4992356;28;20038;-52
2023/06/17 05:53:10;;;;;;;20.70;18.27;;;17.10;99.90;;;;;;4977862;28;20460;-53
2023/06/17 05:55:36;;;;;;;25.08;18.63;;;17.20;99.90;;;;;;4997308;28;20041;-52
2023/06/17 05:58:02;;;;;;;22.83;20.42;;;17.30;99.90;;;;;;5003899;28;20034;-52
2023/06/17 06:00:28;;;;;;;28.38;20.73;;;17.30;99.90;;;;;;4996510;28;20488;-49
2023/06/17 06:02:53;;;;;;;24.40;21.75;;;17.40;99.90;;;;;;4998488;28;20552;-48
2023/06/17 06:05:19;;;;;;;27.40;22.00;;;17.40;99.90;;;;;;5003047;28;20040;-52
2023/06/17 06:07:45;;;;;;;25.48;21.80;;;17.40;99.90;;;;;;4999551;28;20042;-54
2023/06/17 06:10:11;;;;;;;32.78;22.23;;;17.40;99.90;;;;;;4974983;28;20074;-52
2023/06/17 06:12:38;;;;;;;28.83;22.17;;;17.40;99.90;;;;;;5006283;28;20034;-54
2023/06/17 06:15:04;;;;;;;29.23;22.35;;;17.40;99.90;;;;;;5001100;28;20080;-52
2023/06/17 06:17:30;;;;;;;27.95;21.73;;;17.40;99.90;;;;;;4995427;28;20054;-54
2023/06/17 06:19:56;;;;;;;33.20;22.52;;;17.40;99.90;;;;;;4997374;28;20045;-51
2023/06/17 06:22:22;;;;;;;30.98;23.35;;;17.40;99.90;;;;;;5000076;28;20046;-54
2023/06/17 06:24:48;;;;;;;26.83;21.23;;;17.50;99.90;;;;;;4987319;28;20049;-52
2023/06/17 06:27:14;;;;;;;30.42;21.92;;;17.60;99.90;;;;;;4999215;28;20042;-50
2023/06/17 06:29:40;;;;;;;30.77;20.75;;;17.60;99.90;;;;;;4965953;28;20099;-50
2023/06/17 06:32:07;;;;;;;27.25;19.92;;;17.60;99.90;;;;;;4978455;28;20087;-52
2023/06/17 06:34:33;;;;;;;24.13;20.60;;;17.60;99.90;;;;;;4992013;28;20473;-53
2023/06/17 06:36:59;;;;;;;26.90;20.38;;;17.60;99.90;;;;;;4991713;28;20049;-55
2023/06/17 06:39:25;;;;;;;26.52;21.23;;;17.60;99.90;;;;;;4976973;28;20042;-50
2023/06/17 06:41:52;;;;;;;26.35;20.42;;;17.60;99.90;;;;;;4989841;28;20054;-53
2023/06/17 06:44:18;;;;;;;26.35;19.45;;;17.70;99.90;;;;;;4987585;28;20042;-51
2023/06/17 06:46:44;;;;;;;23.05;19.42;;;17.80;99.90;;;;;;4990310;28;20884;-54
2023/06/17 06:49:10;;;;;;;26.42;20.17;;;17.80;99.90;;;;;;4980196;28;20034;-53
2023/06/17 06:51:36;;;;;;;28.58;21.08;;;17.90;99.90;;;;;;4991722;28;20100;-53
2023/06/17 06:54:02;;;;;;;27.95;19.20;;;17.90;99.90;;;;;;4990912;28;20509;-54
2023/06/17 06:56:28;;;;;;;23.58;18.90;;;18.00;99.90;;;;;;4988672;28;20045;-54
2023/06/17 06:58:56;;;;;;;27.00;19.55;;;18.10;99.90;;;;;;4988311;28;20030;-52
2023/06/17 07:01:26;;;;;;;27.27;18.88;;;18.20;99.90;;;;;;4991027;28;20492;-53
2023/06/17 07:03:52;;;;;;;21.70;17.42;;;18.30;99.90;;;;;;4990338;28;20480;-52
2023/06/17 07:06:18;;;;;;;20.65;17.30;;;18.40;99.90;;;;;;4979284;28;20126;-52
2023/06/17 07:08:44;;;;;;;21.08;17.17;;;18.40;99.90;;;;;;4993384;28;20104;-52
2023/06/17 07:11:09;;;;;;;19.63;17.52;;;18.40;99.90;;;;;;4991722;28;20038;-51
2023/06/17 07:13:35;;;;;;;23.73;16.67;;;18.60;99.90;;;;;;4990043;28;20481;-51
2023/06/17 07:16:01;;;;;;;21.75;16.70;;;18.60;99.90;;;;;;4991339;28;20042;-53
2023/06/17 07:18:27;;;;;;;20.80;17.20;;;18.60;99.90;;;;;;4991750;28;20096;-55
2023/06/17 07:20:52;;;;;;;17.67;15.73;;;18.70;99.90;;;;;;4979179;28;20050;-50
2023/06/17 07:23:19;;;;;;;17.27;14.38;;;18.70;99.90;;;;;;4988102;28;20030;-53
2023/06/17 07:25:44;;;;;;;17.25;14.95;;;18.80;99.90;;;;;;4992271;28;20042;-52
2023/06/17 07:28:11;;;;;;;16.08;14.10;;;18.80;99.90;;;;;;4950395;28;20037;-54
2023/06/17 07:30:36;;;;;;;17.95;15.27;;;18.90;99.90;;;;;;5010524;28;20481;-51
2023/06/17 07:33:03;;;;;;;17.73;14.30;;;18.90;99.90;;;;;;4993413;28;20096;-55
2023/06/17 07:35:29;;;;;;;17.33;14.45;;;18.90;99.90;;;;;;5009933;28;20104;-54
2023/06/17 07:37:55;;;;;;;16.48;14.65;;;19.00;99.90;;;;;;5004651;28;20485;-50
2023/06/17 07:40:21;;;;;;;15.73;13.82;;;19.10;99.90;;;;;;5010171;28;20125;-50
2023/06/17 07:42:47;;;;;;;18.55;14.15;;;19.30;99.90;;;;;;4989967;28;20126;-54
2023/06/17 07:45:13;;;;;;;18.50;14.57;;;19.40;99.90;;;;;;4974606;28;20046;-52
2023/06/17 07:47:38;;;;;;;18.05;13.98;;;19.50;99.90;;;;;;4988695;28;20548;-50
2023/06/17 07:50:05;;;;;;;15.70;13.90;;;19.60;99.90;;;;;;4962345;28;20379;-50
2023/06/17 07:52:33;;;;;;;17.40;14.32;;;19.60;99.90;;;;;;4964201;28;20478;-51
2023/06/17 07:54:59;;;;;;;15.70;13.85;;;19.60;99.90;;;;;;4968212;28;20169;-52
2023/06/17 07:57:25;;;;;;;16.33;13.65;;;19.60;99.90;;;;;;4967435;28;20129;-55
2023/06/17 07:59:51;;;;;;;15.98;13.18;;;19.60;99.90;;;;;;4965119;28;20046;-54
2023/06/17 08:02:17;;;;;;;18.17;14.05;;;19.60;99.90;;;;;;4966918;28;20038;-50
2023/06/17 08:04:43;;;;;;;16.88;13.90;;;19.60;99.90;;;;;;4965538;28;20385;-52
2023/06/17 08:07:10;;;;;;;16.40;12.75;;;19.70;99.90;;;;;;4962854;28;20050;-55
2023/06/17 08:09:36;;;;;;;17.88;13.23;;;19.70;99.90;;;;;;4964370;28;20070;-48
2023/06/17 08:12:02;;;;;;;15.07;13.00;;;19.70;99.90;;;;;;4962052;28;20152;-50
2023/06/17 08:14:28;;;;;;;17.75;13.00;;;19.80;99.90;;;;;;4966459;28;20042;-52
2023/06/17 08:16:53;;;;;;;21.52;12.30;;;19.80;99.90;;;;;;4964896;28;20045;-55
2023/06/17 08:19:19;;;;;;;16.17;12.50;;;19.80;99.90;;;;;;4966718;28;20173;-50
2023/06/17 08:21:45;;;;;;;13.68;12.07;;;19.90;99.90;;;;;;4963956;28;20035;-51
2023/06/17 08:24:22;;;;;;;15.68;12.57;;;19.90;99.90;;;;;;4968331;28;20039;-50
2023/06/17 08:26:49;;;;;;;14.63;11.88;;;20.00;99.90;;;;;;4971187;28;20049;-56
2023/06/17 08:29:16;;;;;;;16.00;12.13;;;20.00;99.90;;;;;;4969540;28;20026;-51
2023/06/17 08:31:43;;;;;;;17.65;12.65;;;20.10;99.90;;;;;;4966716;28;20034;-54
2023/06/17 08:34:09;;;;;;;15.90;12.15;;;20.20;99.90;;;;;;4965795;28;20038;-54
2023/06/17 08:36:37;;;;;;;16.80;12.25;;;20.20;99.90;;;;;;4966385;28;20119;-51
2023/06/17 08:39:03;;;;;;;14.48;11.23;;;20.20;99.90;;;;;;4966964;28;20125;-51
2023/06/17 08:41:30;;;;;;;15.27;10.65;;;20.20;99.90;;;;;;4971471;28;20136;-54
2023/06/17 08:43:57;;;;;;;16.85;11.23;;;20.30;99.90;;;;;;4981367;28;20038;-52
2023/06/17 08:46:24;;;;;;;15.50;11.02;;;20.30;99.90;;;;;;4987395;28;20052;-54
2023/06/17 08:48:52;;;;;;;15.82;11.95;;;20.40;99.90;;;;;;4983109;28;20096;-51
2023/06/17 08:51:19;;;;;;;15.68;10.27;;;20.50;99.90;;;;;;4968474;28;20092;-50
2023/06/17 08:53:46;;;;;;;15.25;11.25;;;20.50;99.90;;;;;;4986576;28;20046;-53
2023/06/17 08:56:12;;;;;;;16.88;10.50;;;20.60;99.90;;;;;;4984553;28;20137;-52
2023/06/17 08:58:38;;;;;;;17.42;10.95;;;20.70;99.90;;;;;;4986020;28;20104;-55
2023/06/17 09:01:05;;;;;;;12.50;9.45;;;20.80;99.90;;;;;;4971350;28;20034;-51
2023/06/17 09:03:36;;;;;;;14.90;10.07;;;20.90;99.90;;;;;;4989003;28;20039;-54
2023/06/17 09:06:03;;;;;;;15.93;10.05;;;21.00;99.90;;;;;;4987522;28;20253;-53
2023/06/17 09:08:30;;;;;;;13.73;9.93;;;21.20;99.90;;;;;;4986214;28;20096;-53
2023/06/17 09:11:05;;;;;;;11.70;8.95;;;21.30;99.90;;;;;;4991795;28;20539;-52
2023/06/17 09:13:30;;;;;;;13.80;9.95;;;21.50;99.90;;;;;;4990455;28;20047;-56
2023/06/17 09:15:56;;;;;;;13.98;9.45;;;21.60;99.90;;;;;;4988703;28;20034;-53
2023/06/17 09:18:22;;;;;;;13.55;9.73;;;21.70;99.90;;;;;;4986705;28;20111;-52
2023/06/17 09:20:55;;;;;;;17.42;9.82;;;21.90;99.90;;;;;;4986633;28;20034;-54
2023/06/17 09:23:22;;;;;;;11.68;8.10;;;22.10;99.90;;;;;;4986155;28;20110;-53
2023/06/17 09:25:59;;;;;;;14.82;9.25;;;22.20;99.90;;;;;;4986053;28;20038;-53
2023/06/17 09:28:26;;;;;;;11.10;8.35;;;22.40;99.90;;;;;;4989657;28;20481;-54
2023/06/17 09:30:53;;;;;;;12.90;8.88;;;22.50;99.90;;;;;;4986771;28;20038;-52
2023/06/17 09:33:23;;;;;;;12.70;8.75;;;22.70;99.90;;;;;;4986108;28;20034;-54
2023/06/17 09:36:03;;;;;;;12.43;8.20;;;22.90;99.90;;;;;;4986798;28;20022;-50
2023/06/17 09:38:30;;;;;;;12.40;8.05;;;23.00;99.90;;;;;;4968001;28;20049;-51
2023/06/17 09:40:57;;;;;;;16.42;7.85;;;23.20;99.90;;;;;;4985130;28;20041;-54
2023/06/17 09:43:25;;;;;;;11.38;7.38;;;23.30;99.90;;;;;;4970749;28;20038;-54
2023/06/17 09:46:01;;;;;;;13.43;8.35;;;23.40;99.90;;;;;;4984403;28;20115;-54
2023/06/17 09:48:31;;;;;;;12.82;7.93;;;23.50;99.90;;;;;;4988842;28;20113;-53
2023/06/17 09:50:58;;;;;;;13.85;7.63;;;23.50;99.90;;;;;;4990562;28;20121;-53
2023/06/17 09:53:29;;;;;;;12.30;7.40;;;23.50;99.90;;;;;;4991584;28;20113;-53
2023/06/17 09:55:58;;;;;;;12.15;8.45;;;23.50;99.90;;;;;;4993789;28;20046;-54
2023/06/17 09:58:26;;;;;;;11.85;8.18;;;23.60;99.90;;;;;;4996592;28;20080;-53
2023/06/17 10:00:52;;;;;;;11.40;7.80;;;23.60;99.90;;;;;;4992893;28;20038;-53
2023/06/17 10:03:19;;;;;;;9.70;6.90;;;23.70;99.90;;;;;;4993612;28;20030;-51
2023/06/17 10:06:00;;;;;;;13.50;7.28;;;23.80;99.90;;;;;;4991984;28;20392;-56
2023/06/17 10:08:28;;;;;;;11.70;7.03;;;23.80;99.90;;;;;;4978012;28;20169;-51
2023/06/17 10:10:56;;;;;;;10.20;7.00;;;23.90;99.90;;;;;;4991435;28;20663;-53
2023/06/17 10:13:22;;;;;;;12.52;6.25;;;24.00;99.90;;;;;;4991139;28;20038;-51
2023/06/17 10:15:50;;;;;;;13.45;7.28;;;24.20;99.90;;;;;;4994396;28;20105;-49
2023/06/17 10:18:17;;;;;;;9.48;6.55;;;24.20;99.90;;;;;;4993787;28;20494;-50
2023/06/17 10:20:44;;;;;;;11.10;7.05;;;24.10;99.90;;;;;;4992070;28;20053;-52
2023/06/17 10:23:11;;;;;;;12.25;8.20;;;24.10;99.90;;;;;;4992520;28;20112;-55
2023/06/17 10:25:38;;;;;;;10.02;7.50;;;24.20;99.90;;;;;;4989627;28;20038;-52
2023/06/17 10:28:05;;;;;;;9.73;6.70;;;24.20;99.90;;;;;;4988855;28;20065;-51
2023/06/17 10:30:32;;;;;;;10.32;6.70;;;24.30;99.90;;;;;;4991521;28;20457;-53
2023/06/17 10:32:59;;;;;;;11.30;6.47;;;24.40;99.90;;;;;;4977329;28;20394;-51
2023/06/17 10:35:37;;;;;;;13.32;6.57;;;24.50;99.90;;;;;;4993188;28;20444;-51
2023/06/17 10:38:03;;;;;;;11.07;6.43;;;24.60;99.50;;;;;;4986747;28;20153;-52
2023/06/17 10:40:30;;;;;;;12.60;6.80;;;24.70;99.40;;;;;;4988062;28;20490;-54
2023/06/17 10:43:02;;;;;;;9.75;6.35;;;24.70;99.30;;;;;;4990707;28;20050;-52
2023/06/17 10:45:29;;;;;;;10.13;6.07;;;24.80;99.40;;;;;;4990322;28;20077;-51
2023/06/17 10:48:22;;;;;;;11.48;6.72;;;24.90;99.20;;;;;;4991774;28;20122;-54
2023/06/17 10:50:53;;;;;;;10.23;6.90;;;24.90;98.60;;;;;;4978341;28;20101;-50
2023/06/17 10:53:24;;;;;;;11.32;6.95;;;25.00;98.80;;;;;;4989088;28;20062;-51
2023/06/17 10:55:50;;;;;;;11.85;6.78;;;25.00;99.10;;;;;;4972641;28;20172;-53
2023/06/17 10:58:16;;;;;;;10.93;7.25;;;25.10;99.10;;;;;;4970371;28;20042;-53
2023/06/17 11:00:41;;;;;;;11.90;7.72;;;25.20;98.80;;;;;;4988719;28;20088;-50
2023/06/17 11:03:08;;;;;;;9.90;5.90;;;25.20;98.70;;;;;;4988840;28;20049;-49
2023/06/17 11:05:38;;;;;;;10.05;5.68;;;25.20;98.70;;;;;;4987388;28;20179;-51
2023/06/17 11:08:05;;;;;;;10.20;5.72;;;25.40;98.60;;;;;;4957713;28;20030;-51
2023/06/17 11:10:31;;;;;;;11.70;6.28;;;25.50;98.60;;;;;;4970149;28;20097;-55
2023/06/17 11:12:57;;;;;;;7.70;5.43;;;25.60;98.30;;;;;;4989329;28;20034;-54
2023/06/17 11:15:23;;;;;;;8.18;5.22;;;25.80;98.40;;;;;;4986463;28;20049;-53
2023/06/17 11:18:02;;;;;;;11.07;6.53;;;25.90;98.20;;;;;;4987151;28;20042;-54
2023/06/17 11:20:35;;;;;;;19.52;6.47;;;26.00;97.60;;;;;;4989560;28;20092;-54
2023/06/17 11:23:03;;;;;;;9.40;5.68;;;26.00;97.50;;;;;;4987630;28;20041;-52
2023/06/17 11:25:29;;;;;;;10.20;5.45;;;26.10;97.20;;;;;;4989321;28;20068;-55
2023/06/17 11:27:56;;;;;;;10.20;5.68;;;26.30;96.90;;;;;;4991276;28;20728;-55
2023/06/17 11:30:25;;;;;;;8.00;5.00;;;26.40;96.60;;;;;;4987157;28;20063;-54
2023/06/17 11:32:51;;;;;;;7.65;4.90;;;26.50;97.20;;;;;;4987844;28;20464;-51
2023/06/17 11:35:16;;;;;;;7.78;5.10;;;26.60;96.90;;;;;;4989940;28;20050;-53
2023/06/17 11:37:43;;;;;;;10.23;5.10;;;26.70;96.40;;;;;;4990850;28;20034;-52
2023/06/17 11:40:11;;;;;;;10.48;4.95;;;26.80;96.50;;;;;;4986416;28;20034;-53
2023/06/17 11:42:37;;;;;;;7.95;4.80;;;26.90;96.20;;;;;;4987601;28;20784;-57
2023/06/17 11:45:04;;;;;;;9.05;4.40;;;27.10;95.90;;;;;;4984282;28;20045;-55
2023/06/17 11:47:33;;;;;;;10.45;5.28;;;27.10;95.90;;;;;;4991469;28;20469;-55
2023/06/17 11:49:59;;;;;;;8.85;4.90;;;27.20;95.80;;;;;;4993800;28;20039;-53
2023/06/17 11:52:25;;;;;;;9.60;4.97;;;27.20;95.30;;;;;;4978423;28;20046;-55
2023/06/17 11:54:53;;;;;;;8.65;4.30;;;27.20;95.30;;;;;;4991892;28;20050;-51
2023/06/17 11:57:25;;;;;;;9.38;4.60;;;27.30;94.80;;;;;;4991927;28;20054;-56
2023/06/17 11:59:52;;;;;;;10.77;4.80;;;27.40;94.40;;;;;;4991915;28;20050;-54
2023/06/17 12:02:18;;;;;;;7.80;4.30;;;27.40;94.50;;;;;;4991689;28;20109;-55
2023/06/17 12:04:45;;;;;;;7.30;4.50;;;27.40;94.50;;;;;;4988491;28;20121;-54
2023/06/17 12:07:11;;;;;;;7.47;4.15;;;27.50;94.10;;;;;;4992763;28;20043;-55
2023/06/17 12:09:38;;;;;;;7.03;4.43;;;27.50;94.10;;;;;;4992296;28;20046;-55
2023/06/17 12:12:04;;;;;;;6.80;4.45;;;27.50;94.60;;;;;;4992223;28;20157;-55
2023/06/17 12:14:30;;;;;;;7.55;4.03;;;27.60;93.80;;;;;;4989064;28;20385;-54
2023/06/17 12:16:56;;;;;;;8.50;4.03;;;27.50;93.90;;;;;;4990133;28;20049;-53
2023/06/17 12:19:23;;;;;;;6.78;3.80;;;27.50;93.70;;;;;;4994297;28;20470;-55
2023/06/17 12:21:49;;;;;;;7.57;3.90;;;27.70;93.40;;;;;;4993761;28;20105;-54
2023/06/17 12:24:16;;;;;;;8.50;4.40;;;27.80;93.00;;;;;;4991853;28;20022;-51
2023/06/17 12:26:43;;;;;;;7.22;3.78;;;27.80;92.80;;;;;;4989765;28;20045;-54
2023/06/17 12:29:13;;;;;;;8.68;4.03;;;28.00;92.90;;;;;;4985539;28;20030;-55
2023/06/17 12:31:39;;;;;;;6.78;3.78;;;28.00;92.10;;;;;;4990246;28;20042;-53
2023/06/17 12:34:06;;;;;;;6.45;4.00;;;28.00;92.40;;;;;;4990219;28;20400;-51